Terminal Aerodrome Forecast
Issued by NWS

Home | Current Version | Previous Version | Text Only | Print | Product List | Glossary On
Versions: 1 2 3 4 5 6 7 8 9 10 11 12 13 14 15 16 17
000
FTUS41 KBTV 261732
TAFRUT
TAF
KRUT 261732Z 2618/2718 VRB05KT P6SM FEW070 SCT250
     FM262300 16004KT P6SM VCSH SCT070 BKN120
     FM270900 13006KT P6SM OVC070
     FM271400 15004KT P6SM SCT090
      AMD LTD TO CLD VIS AND WIND=

USA.gov is the U.S. government's official web portal to all federal, state and local government web resources and services.